Time;durP1;ratioP1;P1;durP2;ratioP2;P2;SDS_P1;SDS_P2;PMS_P1;PMS_P2;Temp;Humidity;BMP_temperature;BMP_pressure;BME280_temperature;BME280_humidity;BME280_pressure;Samples;Min_cycle;Max_cycle;Signal;HPM_P1;HPM_P2
2024/02/15 00:00:18;;;;;;;14.88;7.90;;;9.70;96.70;;;;;;4911096;29;20520;-65
2024/02/15 00:02:47;;;;;;;17.65;8.55;;;9.70;96.70;;;;;;4928101;29;20134;-65
2024/02/15 00:05:17;;;;;;;21.65;9.52;;;9.70;96.70;;;;;;4894162;29;20134;-66
2024/02/15 00:07:48;;;;;;;33.05;9.45;;;9.70;96.70;;;;;;4907664;29;20055;-65
2024/02/15 00:10:19;;;;;;;26.17;9.40;;;9.60;96.70;;;;;;4890864;29;20147;-65
2024/02/15 00:12:51;;;;;;;23.08;9.68;;;9.60;96.70;;;;;;4912257;29;20095;-65
2024/02/15 00:15:20;;;;;;;20.90;10.07;;;9.60;96.70;;;;;;4895672;29;20055;-66
2024/02/15 00:17:50;;;;;;;29.70;9.98;;;9.60;96.70;;;;;;4915837;29;20106;-65
2024/02/15 00:20:20;;;;;;;36.25;10.30;;;9.60;96.70;;;;;;4909033;29;20059;-66
2024/02/15 00:22:49;;;;;;;24.27;9.38;;;9.60;96.70;;;;;;4889786;29;20143;-65
2024/02/15 00:25:21;;;;;;;21.63;8.60;;;9.60;96.70;;;;;;4909182;29;20063;-65
2024/02/15 00:27:50;;;;;;;27.77;8.68;;;9.60;96.70;;;;;;4905818;29;20098;-66
2024/02/15 00:30:19;;;;;;;21.70;9.07;;;9.60;96.70;;;;;;4910576;29;20056;-65
2024/02/15 00:32:47;;;;;;;27.58;9.93;;;9.60;96.70;;;;;;4911825;29;20071;-65
2024/02/15 00:35:18;;;;;;;21.45;9.43;;;9.50;96.70;;;;;;4917123;29;20060;-65
2024/02/15 00:37:47;;;;;;;22.17;8.93;;;9.50;96.70;;;;;;4895894;29;20138;-65
2024/02/15 00:40:16;;;;;;;23.00;9.63;;;9.60;96.70;;;;;;4889106;29;20046;-65
2024/02/15 00:42:47;;;;;;;25.15;9.35;;;9.70;96.70;;;;;;4881987;29;20063;-66
2024/02/15 00:45:17;;;;;;;25.25;9.77;;;9.70;96.70;;;;;;4908981;29;20056;-65
2024/02/15 00:47:47;;;;;;;17.33;9.07;;;9.60;96.70;;;;;;4915108;29;20131;-65
2024/02/15 00:50:17;;;;;;;15.38;8.50;;;9.60;96.70;;;;;;4900145;29;20450;-64
2024/02/15 00:52:47;;;;;;;13.93;8.00;;;9.70;96.70;;;;;;4904671;29;20056;-66
2024/02/15 00:55:19;;;;;;;14.57;8.00;;;9.70;96.70;;;;;;4899284;29;20104;-65
2024/02/15 00:57:49;;;;;;;12.60;7.97;;;9.70;96.70;;;;;;4910024;29;20058;-65
2024/02/15 01:00:19;;;;;;;13.65;7.88;;;9.70;96.70;;;;;;4915354;29;20063;-66
2024/02/15 01:02:49;;;;;;;13.95;7.80;;;9.70;96.70;;;;;;4879468;29;20060;-65
2024/02/15 01:05:18;;;;;;;12.98;8.27;;;9.80;96.70;;;;;;4886056;29;20052;-65
2024/02/15 01:07:48;;;;;;;18.77;8.88;;;9.80;96.70;;;;;;4905872;29;20117;-65
2024/02/15 01:10:17;;;;;;;18.95;9.30;;;9.70;96.70;;;;;;4910312;29;20052;-65
2024/02/15 01:12:50;;;;;;;18.63;9.07;;;9.70;96.70;;;;;;4911665;29;20544;-66
2024/02/15 01:15:19;;;;;;;24.92;9.30;;;9.60;96.70;;;;;;4885776;29;20075;-65
2024/02/15 01:17:50;;;;;;;36.78;10.20;;;9.70;96.70;;;;;;4888683;29;20060;-65
2024/02/15 01:20:20;;;;;;;19.70;9.55;;;9.70;96.70;;;;;;4884756;29;20056;-65
2024/02/15 01:22:51;;;;;;;35.50;10.10;;;9.60;96.70;;;;;;4880436;29;20044;-65
2024/02/15 01:25:21;;;;;;;58.50;10.80;;;9.60;96.70;;;;;;4915175;29;20078;-65
2024/02/15 01:27:52;;;;;;;46.00;10.20;;;9.60;96.70;;;;;;4898288;29;20138;-65
2024/02/15 01:30:21;;;;;;;28.13;9.73;;;9.60;96.70;;;;;;4914565;29;20079;-65
2024/02/15 01:32:51;;;;;;;27.60;9.43;;;9.60;96.70;;;;;;4913860;29;20058;-66
2024/02/15 01:35:20;;;;;;;48.80;11.77;;;9.60;96.70;;;;;;4899587;29;20047;-65
2024/02/15 01:37:48;;;;;;;33.42;10.35;;;9.60;96.70;;;;;;4906163;29;20047;-65
2024/02/15 01:40:17;;;;;;;32.17;9.82;;;9.60;96.70;;;;;;4898117;29;20056;-65
2024/02/15 01:42:47;;;;;;;29.92;9.57;;;9.60;96.70;;;;;;4919616;29;20040;-65
2024/02/15 01:45:17;;;;;;;35.50;9.85;;;9.60;96.70;;;;;;4909396;29;20776;-65
2024/02/15 01:47:47;;;;;;;28.20;10.10;;;9.50;96.70;;;;;;4895686;29;20085;-65
2024/02/15 01:50:17;;;;;;;28.27;9.05;;;9.40;96.70;;;;;;4906207;29;20053;-65
2024/02/15 01:52:50;;;;;;;30.52;9.35;;;9.40;96.70;;;;;;4901224;29;20060;-65
2024/02/15 01:55:19;;;;;;;29.30;8.50;;;9.40;96.70;;;;;;4898542;29;20086;-65
2024/02/15 01:57:49;;;;;;;34.20;9.50;;;9.40;96.70;;;;;;4918586;29;20047;-65
2024/02/15 02:00:20;;;;;;;35.67;8.60;;;9.30;96.70;;;;;;4912833;29;20052;-65
2024/02/15 02:02:49;;;;;;;32.50;8.77;;;9.30;96.70;;;;;;4894540;29;20075;-65
2024/02/15 02:05:19;;;;;;;25.85;7.40;;;9.20;96.70;;;;;;4896061;29;20048;-66
2024/02/15 02:07:48;;;;;;;34.40;8.02;;;9.20;96.70;;;;;;4891743;29;20078;-65
2024/02/15 02:10:19;;;;;;;30.95;7.57;;;9.20;96.70;;;;;;4893902;29;20055;-65
2024/02/15 02:12:50;;;;;;;34.72;7.35;;;9.20;96.70;;;;;;4893165;29;20573;-65
2024/02/15 02:15:23;;;;;;;29.55;6.88;;;9.10;96.70;;;;;;4887139;29;20052;-65
2024/02/15 02:17:53;;;;;;;29.13;6.68;;;9.10;96.70;;;;;;4897381;29;20611;-65
2024/02/15 02:20:23;;;;;;;15.30;5.88;;;9.10;96.70;;;;;;4905529;29;20056;-66
2024/02/15 02:23:00;;;;;;;11.15;5.80;;;9.10;96.70;;;;;;4893246;29;20087;-65
2024/02/15 02:25:34;;;;;;;11.38;6.22;;;9.10;96.70;;;;;;4898749;29;20055;-65
2024/02/15 02:28:03;;;;;;;14.13;5.78;;;9.10;96.70;;;;;;4912600;29;20048;-65
2024/02/15 02:30:34;;;;;;;11.75;5.88;;;9.10;96.70;;;;;;4902885;29;20051;-65
2024/02/15 02:33:07;;;;;;;14.93;5.78;;;9.10;96.70;;;;;;4894009;29;20060;-65
2024/02/15 02:35:36;;;;;;;15.82;6.28;;;9.10;96.70;;;;;;4905114;29;20063;-65
2024/02/15 02:38:06;;;;;;;15.15;5.78;;;9.10;96.70;;;;;;4898021;29;20070;-65
2024/02/15 02:40:36;;;;;;;11.80;5.30;;;9.10;96.70;;;;;;4895721;29;20478;-65
2024/02/15 02:43:07;;;;;;;14.15;5.03;;;9.10;96.70;;;;;;4911882;29;20417;-65
2024/02/15 02:45:36;;;;;;;14.68;5.65;;;9.10;96.70;;;;;;4896332;29;20058;-65
2024/02/15 02:48:08;;;;;;;10.55;5.10;;;9.10;96.70;;;;;;4895544;29;20040;-65
2024/02/15 02:50:36;;;;;;;10.18;4.82;;;9.10;96.70;;;;;;4887865;29;20060;-65
2024/02/15 02:53:06;;;;;;;8.77;4.40;;;9.10;96.70;;;;;;4891319;29;20421;-65
2024/02/15 02:55:37;;;;;;;9.02;4.57;;;9.10;96.70;;;;;;4904111;29;20055;-65
2024/02/15 02:58:07;;;;;;;7.88;4.35;;;9.00;96.70;;;;;;4913380;29;20105;-65
2024/02/15 03:00:37;;;;;;;11.98;4.32;;;9.00;96.70;;;;;;4916971;29;20076;-65
2024/02/15 03:03:06;;;;;;;9.35;4.35;;;9.00;96.70;;;;;;4887057;29;20060;-64
2024/02/15 03:05:35;;;;;;;10.52;4.25;;;8.90;96.70;;;;;;4905673;29;20103;-64
2024/02/15 03:08:06;;;;;;;9.50;4.00;;;8.90;96.70;;;;;;4896609;29;20044;-65
2024/02/15 03:10:38;;;;;;;10.73;4.25;;;9.00;96.70;;;;;;4912601;29;20063;-65
2024/02/15 03:13:11;;;;;;;8.93;3.90;;;8.90;96.70;;;;;;4911134;29;20060;-66
2024/02/15 03:15:41;;;;;;;8.65;4.40;;;8.80;96.70;;;;;;4899122;29;20055;-65
2024/02/15 03:18:10;;;;;;;9.68;3.80;;;8.80;96.70;;;;;;4916613;29;20055;-65
2024/02/15 03:20:40;;;;;;;11.25;3.92;;;8.70;96.70;;;;;;4896489;29;20055;-65
2024/02/15 03:23:11;;;;;;;14.38;3.70;;;8.70;96.70;;;;;;4892751;29;20052;-65
2024/02/15 03:25:44;;;;;;;14.85;3.88;;;8.70;96.70;;;;;;4893703;29;20052;-65
2024/02/15 03:28:15;;;;;;;8.88;4.28;;;8.60;96.70;;;;;;4887473;29;20054;-65
2024/02/15 03:30:46;;;;;;;13.18;4.05;;;8.80;96.70;;;;;;4905086;29;20087;-65
2024/02/15 03:33:15;;;;;;;14.15;4.00;;;8.80;96.70;;;;;;4896741;29;20051;-66
2024/02/15 03:35:45;;;;;;;8.85;4.05;;;8.80;96.70;;;;;;4905697;29;20051;-65
2024/02/15 03:38:16;;;;;;;10.88;3.70;;;8.70;96.70;;;;;;4925971;29;20095;-65
2024/02/15 03:40:46;;;;;;;9.63;4.10;;;8.70;96.70;;;;;;4896821;29;20056;-65
2024/02/15 03:43:18;;;;;;;17.17;4.15;;;8.60;96.70;;;;;;4916494;29;20051;-65
2024/02/15 03:45:47;;;;;;;11.25;4.03;;;8.60;96.70;;;;;;4911738;29;20052;-65
2024/02/15 03:48:16;;;;;;;9.02;3.80;;;8.70;96.70;;;;;;4896487;29;20074;-65
2024/02/15 03:50:45;;;;;;;12.80;4.28;;;8.60;96.70;;;;;;4919776;29;20472;-65
2024/02/15 03:53:16;;;;;;;13.30;4.93;;;8.60;96.70;;;;;;4896398;29;20101;-65
2024/02/15 03:55:46;;;;;;;12.88;4.00;;;8.70;96.70;;;;;;4919740;29;20500;-65
2024/02/15 03:58:15;;;;;;;11.90;4.25;;;8.70;96.70;;;;;;4898727;29;20059;-65
2024/02/15 04:00:45;;;;;;;11.27;4.65;;;8.70;96.70;;;;;;4914363;29;20043;-65
2024/02/15 04:03:17;;;;;;;12.38;4.22;;;8.70;96.70;;;;;;4896422;29;20147;-65
2024/02/15 04:05:46;;;;;;;12.40;4.90;;;8.60;96.70;;;;;;4910964;29;20055;-65
2024/02/15 04:08:18;;;;;;;11.50;4.63;;;8.60;96.70;;;;;;4912347;29;20036;-65
2024/02/15 04:10:49;;;;;;;11.45;5.10;;;8.60;96.70;;;;;;4919156;29;20111;-65
2024/02/15 04:13:20;;;;;;;12.15;4.40;;;8.60;96.70;;;;;;4902152;29;20151;-65
2024/02/15 04:15:50;;;;;;;7.65;4.30;;;8.60;96.70;;;;;;4911457;29;21073;-65
2024/02/15 04:18:19;;;;;;;10.27;4.60;;;8.60;96.70;;;;;;4890310;29;20052;-65
2024/02/15 04:20:48;;;;;;;13.35;5.28;;;8.60;96.70;;;;;;4904691;29;20059;-65
2024/02/15 04:23:18;;;;;;;15.05;7.05;;;8.50;96.70;;;;;;4914486;29;20055;-65
2024/02/15 04:25:51;;;;;;;19.15;11.23;;;8.50;96.70;;;;;;4911126;29;20588;-65
2024/02/15 04:28:20;;;;;;;31.25;18.27;;;8.40;96.70;;;;;;4915611;29;20059;-66
2024/02/15 04:30:49;;;;;;;42.17;24.38;;;8.40;96.70;;;;;;4902506;29;20052;-64
2024/02/15 04:33:18;;;;;;;51.15;29.95;;;8.40;96.70;;;;;;4909568;29;20116;-65
2024/02/15 04:35:49;;;;;;;65.60;40.58;;;8.40;96.70;;;;;;4878541;29;20052;-65
2024/02/15 04:38:19;;;;;;;82.35;50.50;;;8.30;96.70;;;;;;4887321;29;20044;-65
2024/02/15 04:40:48;;;;;;;84.00;50.95;;;8.30;96.70;;;;;;4908495;29;20465;-65
2024/02/15 04:43:19;;;;;;;85.75;54.05;;;8.30;96.70;;;;;;4878446;29;20095;-65
2024/02/15 04:45:48;;;;;;;72.53;45.35;;;8.40;96.70;;;;;;4894300;29;20158;-65
2024/02/15 04:48:18;;;;;;;63.88;36.65;;;8.40;96.70;;;;;;4889667;29;20056;-66
2024/02/15 04:50:47;;;;;;;36.50;19.77;;;8.40;96.70;;;;;;4919916;29;20118;-65
2024/02/15 04:53:16;;;;;;;25.35;15.98;;;8.40;96.70;;;;;;4880824;29;20401;-65
2024/02/15 04:55:48;;;;;;;27.25;15.05;;;8.40;96.70;;;;;;4905150;29;20157;-65
2024/02/15 04:58:16;;;;;;;23.80;12.73;;;8.50;96.70;;;;;;4913809;29;20059;-65
2024/02/15 05:00:44;;;;;;;21.83;11.20;;;8.50;96.70;;;;;;4906698;29;20424;-65
2024/02/15 05:03:16;;;;;;;20.17;10.88;;;8.40;96.70;;;;;;4906140;29;20055;-65
2024/02/15 05:05:47;;;;;;;20.98;10.90;;;8.40;96.70;;;;;;4893484;29;20056;-65
2024/02/15 05:08:16;;;;;;;18.88;9.15;;;8.50;96.70;;;;;;4878723;29;20147;-65
2024/02/15 05:10:46;;;;;;;14.57;8.63;;;8.50;96.70;;;;;;4889383;29;20060;-65
2024/02/15 05:13:16;;;;;;;16.85;6.30;;;8.50;96.70;;;;;;4905212;29;20052;-65
2024/02/15 05:15:45;;;;;;;11.65;5.95;;;8.60;96.70;;;;;;4910296;29;20056;-65
2024/02/15 05:18:16;;;;;;;12.15;5.80;;;8.60;96.70;;;;;;4894093;29;20076;-65
2024/02/15 05:20:47;;;;;;;11.77;5.68;;;8.60;96.70;;;;;;4905151;29;20082;-65
2024/02/15 05:23:18;;;;;;;14.75;5.95;;;8.60;96.70;;;;;;4915420;29;20055;-66
2024/02/15 05:25:47;;;;;;;11.70;4.47;;;8.50;96.70;;;;;;4905755;29;20123;-65
2024/02/15 05:28:18;;;;;;;11.40;5.50;;;8.50;96.70;;;;;;4897006;29;20052;-65
2024/02/15 05:30:48;;;;;;;12.93;4.63;;;8.50;96.70;;;;;;4912189;29;20513;-66
2024/02/15 05:33:17;;;;;;;9.75;4.78;;;8.50;96.70;;;;;;4919368;29;20076;-65
2024/02/15 05:35:49;;;;;;;9.18;4.57;;;8.40;96.70;;;;;;4909949;29;20067;-65
2024/02/15 05:38:18;;;;;;;8.77;4.05;;;8.40;96.70;;;;;;4909410;29;20052;-65
2024/02/15 05:40:50;;;;;;;12.85;4.57;;;8.50;96.70;;;;;;4903881;29;20713;-65
2024/02/15 05:43:21;;;;;;;6.53;4.30;;;8.40;96.70;;;;;;4923262;29;20063;-65
2024/02/15 05:45:51;;;;;;;8.30;4.10;;;8.40;96.70;;;;;;4906824;29;20048;-65
2024/02/15 05:48:21;;;;;;;8.88;4.20;;;8.40;96.70;;;;;;4901524;29;20126;-65
2024/02/15 05:50:50;;;;;;;10.40;4.55;;;8.30;96.70;;;;;;4899672;29;20048;-65
2024/02/15 05:53:18;;;;;;;10.35;5.35;;;8.30;96.70;;;;;;4921167;29;20071;-65
2024/02/15 05:55:49;;;;;;;17.38;6.97;;;8.30;96.70;;;;;;4906721;29;20048;-65
2024/02/15 05:58:18;;;;;;;9.38;5.15;;;8.30;96.70;;;;;;4911496;29;20083;-65
2024/02/15 06:00:49;;;;;;;18.88;6.88;;;8.30;96.70;;;;;;4892120;29;20052;-65
2024/02/15 06:03:18;;;;;;;9.40;5.57;;;8.40;96.70;;;;;;4909165;29;20059;-65
2024/02/15 06:05:47;;;;;;;9.13;5.53;;;8.40;96.70;;;;;;4895234;29;20054;-65
2024/02/15 06:08:17;;;;;;;15.95;5.97;;;8.50;96.70;;;;;;4912485;29;20048;-65
2024/02/15 06:10:47;;;;;;;12.38;5.30;;;8.50;96.70;;;;;;4910576;29;20048;-66
2024/02/15 06:13:17;;;;;;;12.00;5.97;;;8.40;96.70;;;;;;4909266;29;20407;-65
2024/02/15 06:15:46;;;;;;;12.40;5.43;;;8.50;96.70;;;;;;4909733;29;20050;-66
2024/02/15 06:18:21;;;;;;;10.60;5.30;;;8.30;96.70;;;;;;4908460;29;20183;-65
2024/02/15 06:20:49;;;;;;;13.27;6.47;;;8.40;96.70;;;;;;4895559;29;20059;-65
2024/02/15 06:23:20;;;;;;;13.27;6.15;;;8.30;96.70;;;;;;4895919;29;20064;-65
2024/02/15 06:26:00;;;;;;;13.00;5.97;;;8.40;96.70;;;;;;4900875;29;20127;-65
2024/02/15 06:39:44;;;;;;;13.27;5.80;;;8.30;96.70;;;;;;4911657;29;20048;-65
2024/02/15 06:42:20;;;;;;;13.48;7.22;;;8.30;96.70;;;;;;4903347;29;20067;-64
2024/02/15 06:44:50;;;;;;;16.27;6.65;;;8.40;96.70;;;;;;4904481;29;20061;-65
2024/02/15 06:47:19;;;;;;;15.20;6.45;;;8.40;96.70;;;;;;4893052;29;20513;-65
2024/02/15 06:49:51;;;;;;;13.07;7.00;;;8.50;96.70;;;;;;4909170;29;20071;-65
2024/02/15 06:52:21;;;;;;;11.80;5.60;;;8.50;96.70;;;;;;4905803;29;20059;-65
2024/02/15 06:54:51;;;;;;;14.10;5.55;;;8.50;96.70;;;;;;4897538;29;20075;-65
2024/02/15 06:57:20;;;;;;;14.65;5.65;;;8.60;96.70;;;;;;4922708;29;20159;-65
2024/02/15 06:59:48;;;;;;;11.20;4.30;;;8.60;96.70;;;;;;4909330;29;20051;-66
2024/02/15 07:02:16;;;;;;;11.25;4.18;;;8.60;96.70;;;;;;4924320;29;20052;-66
2024/02/15 07:04:45;;;;;;;18.73;4.00;;;8.60;96.70;;;;;;4906955;29;20265;-65
2024/02/15 07:07:16;;;;;;;9.43;4.22;;;8.60;96.70;;;;;;4900430;29;20055;-66
2024/02/15 07:09:45;;;;;;;13.77;4.60;;;8.70;96.70;;;;;;4924992;29;20319;-65
2024/02/15 07:12:15;;;;;;;7.70;4.53;;;8.70;96.70;;;;;;4902167;29;20059;-66
2024/02/15 07:14:45;;;;;;;7.60;4.22;;;8.70;96.70;;;;;;4905584;29;20051;-66
2024/02/15 07:17:13;;;;;;;9.43;3.88;;;8.80;96.70;;;;;;4916864;29;20048;-65
2024/02/15 07:19:44;;;;;;;8.68;4.10;;;8.70;96.70;;;;;;4869921;29;20802;-66
2024/02/15 07:22:16;;;;;;;6.03;3.70;;;8.80;96.70;;;;;;4868251;29;20063;-72
2024/02/15 07:24:47;;;;;;;8.10;4.18;;;8.80;96.70;;;;;;4872183;29;20060;-67
2024/02/15 07:27:18;;;;;;;6.75;4.10;;;8.80;96.70;;;;;;4905327;29;20115;-67
2024/02/15 07:29:47;;;;;;;7.68;3.05;;;8.80;96.70;;;;;;4882671;29;20049;-67
2024/02/15 07:32:17;;;;;;;7.13;3.85;;;8.90;96.70;;;;;;4876323;29;20055;-67
2024/02/15 07:34:47;;;;;;;10.27;4.28;;;8.90;96.70;;;;;;4866270;29;20064;-67
2024/02/15 07:37:18;;;;;;;12.88;4.13;;;8.90;96.70;;;;;;4889742;29;20091;-66
2024/02/15 07:39:48;;;;;;;8.80;4.75;;;8.90;96.70;;;;;;4868054;29;20072;-67
2024/02/15 07:42:18;;;;;;;11.88;4.80;;;8.90;96.70;;;;;;4871918;29;20072;-67
2024/02/15 07:44:47;;;;;;;7.13;4.30;;;8.90;96.70;;;;;;4882165;29;20883;-67
2024/02/15 07:47:17;;;;;;;10.55;4.47;;;8.90;96.70;;;;;;4886839;29;20116;-67
2024/02/15 07:49:47;;;;;;;16.35;5.57;;;8.80;96.70;;;;;;4887646;29;20052;-67
2024/02/15 07:52:18;;;;;;;10.02;5.30;;;8.90;96.70;;;;;;4891115;29;20108;-67
2024/02/15 07:54:47;;;;;;;11.88;5.05;;;8.90;96.70;;;;;;4891504;29;20472;-67
2024/02/15 07:57:16;;;;;;;13.90;4.85;;;8.90;96.70;;;;;;4874778;29;20075;-67
2024/02/15 07:59:47;;;;;;;12.18;5.45;;;8.90;96.70;;;;;;4883368;29;20076;-67
2024/02/15 08:02:22;;;;;;;10.93;5.85;;;8.90;96.70;;;;;;4889658;29;20109;-67
2024/02/15 08:04:53;;;;;;;12.38;4.93;;;9.00;96.70;;;;;;4890271;29;20630;-67
2024/02/15 08:07:25;;;;;;;10.52;5.32;;;9.00;96.70;;;;;;4905582;29;20052;-66
2024/02/15 08:09:57;;;;;;;10.65;5.78;;;9.10;96.70;;;;;;4896483;29;20490;-67
2024/02/15 08:12:26;;;;;;;9.07;6.03;;;9.10;96.70;;;;;;4889178;29;20060;-67
2024/02/15 08:14:58;;;;;;;14.85;7.35;;;9.20;96.70;;;;;;4913948;29;20044;-67
2024/02/15 08:17:29;;;;;;;8.93;5.78;;;9.30;96.70;;;;;;4901486;29;20079;-66
2024/02/15 08:19:58;;;;;;;11.30;5.65;;;9.30;96.70;;;;;;4911942;29;20071;-67
2024/02/15 08:22:30;;;;;;;13.32;6.78;;;9.30;96.70;;;;;;4913034;29;20062;-67
2024/02/15 08:25:02;;;;;;;13.25;6.47;;;9.40;96.70;;;;;;4902920;29;20056;-67
2024/02/15 08:27:39;;;;;;;14.40;7.03;;;9.30;96.70;;;;;;4906231;29;20048;-67
2024/02/15 08:30:10;;;;;;;19.17;8.18;;;9.40;96.70;;;;;;4898244;29;20052;-67
2024/02/15 08:32:41;;;;;;;19.08;8.93;;;9.30;96.70;;;;;;4908480;29;20075;-67
2024/02/15 08:35:12;;;;;;;14.18;7.82;;;9.20;96.70;;;;;;4894248;29;20063;-66
2024/02/15 08:37:47;;;;;;;22.50;9.27;;;9.20;96.70;;;;;;4885680;29;20090;-67
2024/02/15 08:40:18;;;;;;;18.02;9.45;;;9.30;96.70;;;;;;4907026;29;20048;-66
2024/02/15 08:42:48;;;;;;;17.05;9.45;;;9.40;96.70;;;;;;4896961;29;20525;-67
2024/02/15 08:45:17;;;;;;;16.60;9.60;;;9.40;96.70;;;;;;4906091;29;20067;-67
2024/02/15 08:47:49;;;;;;;15.70;10.23;;;9.40;96.70;;;;;;4919751;29;20055;-66
2024/02/15 08:50:22;;;;;;;17.80;10.05;;;9.50;96.70;;;;;;4906437;29;20075;-67
2024/02/15 08:52:56;;;;;;;17.17;10.30;;;9.50;96.70;;;;;;4892106;29;20079;-67
2024/02/15 08:55:27;;;;;;;17.25;10.75;;;9.50;96.70;;;;;;4881494;29;20509;-67
2024/02/15 08:57:55;;;;;;;16.98;11.20;;;9.50;96.70;;;;;;4878993;29;20083;-67
2024/02/15 09:00:26;;;;;;;20.23;11.82;;;9.50;96.70;;;;;;4887885;29;20044;-67
2024/02/15 09:02:57;;;;;;;20.65;11.88;;;9.60;96.70;;;;;;4916505;29;20055;-66
2024/02/15 09:05:26;;;;;;;19.10;12.60;;;9.60;96.70;;;;;;4888538;29;20616;-67
2024/02/15 09:07:59;;;;;;;18.63;12.02;;;9.70;96.70;;;;;;4898656;29;20569;-67
2024/02/15 09:10:30;;;;;;;16.95;12.10;;;9.80;96.70;;;;;;4891648;29;20485;-67
2024/02/15 09:13:00;;;;;;;16.92;11.65;;;9.70;96.70;;;;;;4912168;29;20166;-67
2024/02/15 09:15:30;;;;;;;20.08;12.18;;;9.70;96.70;;;;;;4911967;29;20521;-67
2024/02/15 09:18:01;;;;;;;19.75;13.27;;;9.80;96.70;;;;;;4913383;29;20087;-67
2024/02/15 09:20:31;;;;;;;17.30;12.38;;;9.90;96.70;;;;;;4890545;29;20058;-67
2024/02/15 09:23:09;;;;;;;18.20;12.60;;;9.90;96.70;;;;;;4921519;29;20079;-68
2024/02/15 09:25:39;;;;;;;17.20;12.35;;;10.00;96.70;;;;;;4915334;29;20051;-67
2024/02/15 09:28:08;;;;;;;17.98;12.55;;;10.10;96.70;;;;;;4916866;29;20107;-67
2024/02/15 09:30:37;;;;;;;16.90;11.68;;;10.10;96.70;;;;;;4912787;29;20056;-67
2024/02/15 09:33:06;;;;;;;17.45;12.73;;;10.30;96.70;;;;;;4899801;29;20078;-67
2024/02/15 09:35:36;;;;;;;20.23;12.77;;;10.30;96.70;;;;;;4907425;29;20106;-67
2024/02/15 09:38:08;;;;;;;20.42;12.85;;;10.40;96.70;;;;;;4898979;29;20048;-68
2024/02/15 09:40:37;;;;;;;17.23;12.82;;;10.40;96.70;;;;;;4907573;29;20059;-67
2024/02/15 09:43:06;;;;;;;19.23;13.10;;;10.60;96.70;;;;;;4903287;29;20138;-67
2024/02/15 09:45:37;;;;;;;16.85;12.85;;;10.60;96.70;;;;;;4929487;29;20060;-67
2024/02/15 09:48:10;;;;;;;20.08;13.68;;;10.80;96.70;;;;;;4890487;29;20150;-67
2024/02/15 09:50:48;;;;;;;14.40;10.68;;;10.90;96.70;;;;;;4893275;29;20103;-67
2024/02/15 09:53:22;;;;;;;14.57;10.57;;;11.10;96.70;;;;;;4891641;29;20063;-67
2024/02/15 09:55:53;;;;;;;12.95;9.50;;;11.30;96.70;;;;;;4900404;29;20077;-67
2024/02/15 09:58:25;;;;;;;13.07;9.45;;;11.30;96.70;;;;;;4896503;29;20051;-67
2024/02/15 10:00:55;;;;;;;14.18;10.30;;;11.30;96.70;;;;;;4892962;29;20059;-67
2024/02/15 10:03:28;;;;;;;15.60;10.93;;;11.40;96.70;;;;;;4914139;29;20064;-67
2024/02/15 10:05:58;;;;;;;13.27;10.38;;;11.50;96.70;;;;;;4897371;29;20055;-67
2024/02/15 10:08:34;;;;;;;14.57;10.05;;;11.60;96.70;;;;;;4899806;29;20413;-67
2024/02/15 10:11:11;;;;;;;15.80;11.05;;;11.70;96.70;;;;;;4906180;29;20048;-67
2024/02/15 10:13:40;;;;;;;13.68;10.40;;;11.70;96.70;;;;;;4907634;29;20063;-67
2024/02/15 10:16:18;;;;;;;12.77;9.25;;;11.60;96.70;;;;;;4899069;29;20143;-67
2024/02/15 10:18:47;;;;;;;12.30;10.02;;;11.60;96.70;;;;;;4892960;29;20576;-67
2024/02/15 10:21:29;;;;;;;12.65;9.63;;;11.60;96.70;;;;;;4897932;29;20516;-67
2024/02/15 10:24:09;;;;;;;13.43;9.85;;;11.60;96.70;;;;;;4931641;29;20150;-67
2024/02/15 10:26:39;;;;;;;12.95;10.25;;;11.70;96.70;;;;;;4928740;29;20423;-67
2024/02/15 10:29:10;;;;;;;12.07;9.85;;;11.60;96.70;;;;;;4905801;29;20142;-67
2024/02/15 10:31:52;;;;;;;17.55;11.30;;;11.50;96.70;;;;;;4914965;29;20055;-67
2024/02/15 10:34:22;;;;;;;19.75;11.82;;;11.60;96.70;;;;;;4906683;29;20051;-67
2024/02/15 10:36:53;;;;;;;19.33;13.18;;;11.60;96.70;;;;;;4905865;29;20140;-67
2024/02/15 10:39:25;;;;;;;17.05;12.05;;;11.50;96.70;;;;;;4918086;29;20056;-67
2024/02/15 10:41:54;;;;;;;15.98;11.80;;;11.50;96.70;;;;;;4905477;29;20138;-68
2024/02/15 10:44:25;;;;;;;13.90;10.80;;;11.50;96.70;;;;;;4926141;29;20062;-68
2024/02/15 10:46:55;;;;;;;15.93;10.10;;;11.60;96.70;;;;;;4887656;29;20060;-67
2024/02/15 10:49:25;;;;;;;14.23;9.45;;;11.80;96.70;;;;;;4888346;29;20628;-68
2024/02/15 10:51:58;;;;;;;17.75;12.35;;;11.90;96.70;;;;;;4917885;29;20121;-67
2024/02/15 10:54:42;;;;;;;16.05;11.45;;;12.00;96.70;;;;;;4907077;29;20064;-67
2024/02/15 10:57:16;;;;;;;16.48;11.90;;;11.90;96.70;;;;;;4897681;29;20146;-67
2024/02/15 10:59:54;;;;;;;15.35;11.95;;;12.10;96.70;;;;;;4885509;29;20059;-67
2024/02/15 11:02:30;;;;;;;14.40;11.40;;;12.10;96.70;;;;;;4932121;29;20043;-67
2024/02/15 11:05:04;;;;;;;12.85;11.25;;;12.20;96.70;;;;;;4906448;29;20114;-68
2024/02/15 11:07:35;;;;;;;14.85;11.85;;;12.30;96.70;;;;;;4910907;29;20051;-67
2024/02/15 11:10:10;;;;;;;14.82;11.50;;;12.50;96.70;;;;;;4910516;29;20051;-67
2024/02/15 11:12:42;;;;;;;13.68;11.05;;;12.60;96.70;;;;;;4919199;29;20055;-68
2024/02/15 11:15:45;;;;;;;14.07;11.85;;;12.60;96.70;;;;;;4907195;29;20066;-67
2024/02/15 11:18:34;;;;;;;14.80;10.68;;;12.70;96.70;;;;;;4904229;29;20059;-68
2024/02/15 11:21:03;;;;;;;13.00;10.45;;;12.80;96.70;;;;;;4900319;29;20067;-68
2024/02/15 11:23:34;;;;;;;12.15;10.50;;;12.90;96.70;;;;;;4889374;29;20622;-67
2024/02/15 11:26:09;;;;;;;12.10;10.90;;;12.90;96.70;;;;;;4905822;29;20048;-68
2024/02/15 11:28:43;;;;;;;11.73;10.52;;;13.00;96.70;;;;;;4912755;29;20091;-68
2024/02/15 11:31:52;;;;;;;13.10;11.02;;;13.10;96.70;;;;;;4910514;29;20095;-68
2024/02/15 11:34:48;;;;;;;15.02;10.80;;;13.10;96.70;;;;;;4930685;29;20652;-68
2024/02/15 11:37:58;;;;;;;12.55;10.98;;;13.10;96.70;;;;;;4891562;29;20060;-68
2024/02/15 11:40:49;;;;;;;14.52;11.40;;;13.20;96.70;;;;;;4854466;29;20053;-68
2024/02/15 11:43:58;;;;;;;13.25;10.98;;;13.30;96.70;;;;;;4868620;29;20065;-68
2024/02/15 11:46:32;;;;;;;12.68;11.25;;;13.40;96.70;;;;;;4892964;29;20062;-69
2024/02/15 11:49:03;;;;;;;13.00;10.93;;;13.50;96.70;;;;;;4909398;29;20082;-69
2024/02/15 11:51:36;;;;;;;12.90;10.45;;;13.60;96.70;;;;;;4886902;29;20055;-70
2024/02/15 11:54:07;;;;;;;13.45;11.13;;;13.70;96.70;;;;;;4897603;29;20056;-68
2024/02/15 11:57:05;;;;;;;16.92;12.13;;;13.90;96.70;;;;;;4909968;29;20150;-69
2024/02/15 12:19:25;;;;;;;13.95;11.32;;;14.60;96.70;;;;;;4916292;29;20066;-69
2024/02/15 12:21:57;;;;;;;12.48;10.70;;;14.70;96.70;;;;;;4916814;29;20505;-69
2024/02/15 12:24:26;;;;;;;15.35;12.15;;;14.70;96.70;;;;;;4909673;29;20111;-69
2024/02/15 12:27:03;;;;;;;14.68;12.15;;;14.80;96.70;;;;;;4910119;29;20098;-69
2024/02/15 12:29:32;;;;;;;13.20;11.77;;;14.90;96.70;;;;;;4884379;29;20056;-69
2024/02/15 12:32:03;;;;;;;14.45;11.90;;;15.00;96.70;;;;;;4913648;29;20100;-71
2024/02/15 12:34:31;;;;;;;15.90;12.13;;;15.10;96.70;;;;;;4891158;29;20060;-69
2024/02/15 12:37:09;;;;;;;13.57;11.95;;;15.40;96.70;;;;;;4886275;29;20075;-69
2024/02/15 12:39:37;;;;;;;17.17;14.02;;;15.50;96.70;;;;;;4889885;29;20574;-69
2024/02/15 12:42:09;;;;;;;20.00;14.60;;;15.50;96.70;;;;;;4891644;29;20775;-70
2024/02/15 12:44:42;;;;;;;16.25;12.45;;;15.50;96.70;;;;;;4897731;29;20048;-69
2024/02/15 12:47:18;;;;;;;17.27;13.68;;;15.60;96.70;;;;;;4906086;29;20052;-69
2024/02/15 12:49:46;;;;;;;16.60;11.97;;;15.70;96.70;;;;;;4875485;29;20152;-70
2024/02/15 12:52:36;;;;;;;14.45;11.63;;;15.90;96.70;;;;;;4891167;29;20312;-70
2024/02/15 12:55:11;;;;;;;14.48;11.02;;;16.00;96.70;;;;;;4911813;29;20067;-69
2024/02/15 12:57:41;;;;;;;14.82;10.57;;;16.30;96.70;;;;;;4916030;29;20115;-68
2024/02/15 13:00:12;;;;;;;12.32;10.88;;;16.40;96.70;;;;;;4907585;29;20450;-69
2024/02/15 13:02:43;;;;;;;12.40;10.18;;;16.40;96.70;;;;;;4891325;29;20123;-70
2024/02/15 13:05:17;;;;;;;12.38;10.45;;;16.30;96.70;;;;;;4898045;29;20071;-69
2024/02/15 13:07:46;;;;;;;12.32;10.20;;;16.30;96.70;;;;;;4898984;29;20542;-70
2024/02/15 13:10:14;;;;;;;13.13;10.43;;;16.40;96.70;;;;;;4897358;29;20100;-70
2024/02/15 13:12:45;;;;;;;12.60;10.10;;;16.40;96.70;;;;;;4910745;29;20472;-70
2024/02/15 13:15:17;;;;;;;10.75;9.13;;;16.50;96.70;;;;;;4895909;29;20123;-69
2024/02/15 13:17:53;;;;;;;13.13;9.65;;;16.50;96.70;;;;;;4902599;29;20079;-70
2024/02/15 13:20:33;;;;;;;15.52;10.25;;;16.70;96.70;;;;;;4893031;29;20055;-69
2024/02/15 13:23:22;;;;;;;22.67;14.02;;;16.70;96.70;;;;;;4909846;29;20052;-70
2024/02/15 13:25:56;;;;;;;14.82;10.05;;;16.70;96.70;;;;;;4891321;29;20056;-70
2024/02/15 13:28:25;;;;;;;13.05;9.25;;;16.90;96.70;;;;;;4914654;29;20509;-70
2024/02/15 13:30:56;;;;;;;12.73;9.65;;;17.00;96.70;;;;;;4911417;29;20123;-70
2024/02/15 13:33:31;;;;;;;9.70;7.50;;;17.00;96.70;;;;;;4902206;29;20064;-70